To NAV CANADA Home Page Login to a new session Search on AWWS site Feedback and Comments Disclaimer Vers la page française équivalente Tips FAQ What's new on the site To the Forecasts and Observations / NOTAM section To "File a Flight Plan" website Publications and other links Update of the User's profile FIC Telephone Numbers My Weather Data Folder Route Weather Data Regional Weather Data Local Weather Data To the Forecasts and Observations / NOTAM section
Request Generated 07/02/2015 at 00:53:11 UTC . Weather information available at that time is displayed.

METAR/TAF

NAIN/NL    

LWIS CYDP 020000Z AUTO 08010KT 06/05 A3000=
METAR CYDP 012300Z 08010KT 15SM OVC022 06/05 A2999 RMK SC8 LAST
STAFFED OB/ NEXT 020800 SLP156=
METAR CYDP 012200Z 08010KT 15SM OVC022 06/05 A2999 RMK SC8 SLP155=

*** REMARK        : Forecast period has ended; this was the last TAF issued
*** REMARQUE : La période de prévision est échue; ceci était le dernier TAF qui a été émis
TAF CYDP 011940Z 0120/0123 09010KT P6SM BKN020 TEMPO 0120/0122 BKN025
FM012200 07005KT P6SM SCT008 OVC020 TEMPO 0122/0123 3SM -DZ BR
OVC008
RMK NXT FCST WILL BE ISSUED AT 020945Z=
Your time UTC time
Weather data provided by Environment Canada and NAV CANADA